Terminal Aerodrome Forecast
Issued by NWS Grand Forks, ND

Home | Current Version | Previous Version | Graphics & Text | Print | Product List | Glossary On
Versions: 1 2 3 4 5 6 7 8 9 10 11 12 13 14 15 16 17 18 19 20 21 22
858
FTUS43 KFGF 090051 AAA
TAFFAR
TAF AMD
KFAR 090051Z 0901/0924 35018G25KT 3SM BLSN BKN012
      TEMPO 0901/0902 1SM -SN BLSN
     FM090200 34015G22KT 3SM BLSN BKN030
      TEMPO 0902/0903 4SM BLSN SCT030
     FM090300 35015KT P6SM SCT025
     FM090900 34010KT P6SM BKN250=

USA.gov is the U.S. government's official web portal to all federal, state and local government web resources and services.